createdAt,value
2023-05-11T00:01:13.663Z,100756.41
2023-05-11T00:03:45.342Z,100757.38
2023-05-11T00:06:17.204Z,100752.94
2023-05-11T00:08:48.671Z,100749.69
2023-05-11T00:11:20.448Z,100759.84
2023-05-11T00:13:51.902Z,100767.09
2023-05-11T00:16:23.643Z,100754.75
2023-05-11T00:18:55.231Z,100750.91
2023-05-11T00:21:27.164Z,100758.66
2023-05-11T00:23:59.053Z,100751.09
2023-05-11T00:26:30.549Z,100749.13
2023-05-11T00:29:02.058Z,100755.69
2023-05-11T00:31:33.570Z,100754.22
2023-05-11T00:34:05.244Z,100747.63
2023-05-11T00:36:36.687Z,100744.38
2023-05-11T00:39:08.324Z,100750.22
2023-05-11T00:41:39.765Z,100752.00
2023-05-11T00:44:11.540Z,100749.59
2023-05-11T00:46:43.008Z,100755.56
2023-05-11T00:49:14.961Z,100754.66
2023-05-11T00:51:46.425Z,100755.16
2023-05-11T00:54:18.235Z,100754.09
2023-05-11T00:56:49.726Z,100754.31
2023-05-11T00:59:21.420Z,100759.34
2023-05-11T01:01:53.146Z,100760.06
2023-05-11T01:04:24.622Z,100756.22
2023-05-11T01:06:56.307Z,100759.03
2023-05-11T01:09:27.770Z,100756.47
2023-05-11T01:11:59.522Z,100757.78
2023-05-11T01:14:30.983Z,100752.88
2023-05-11T01:17:02.835Z,100757.78
2023-05-11T01:19:34.335Z,100764.06
2023-05-11T01:22:06.357Z,100759.38
2023-05-11T01:24:37.830Z,100757.91
2023-05-11T01:27:09.307Z,100759.53
2023-05-11T01:29:40.784Z,100763.13
2023-05-11T01:32:12.263Z,100759.75
2023-05-11T01:34:44.087Z,100772.78
2023-05-11T01:37:15.564Z,100774.66
2023-05-11T01:39:47.320Z,100772.91
2023-05-11T01:42:18.793Z,100769.06
2023-05-11T01:44:50.637Z,100774.31
2023-05-11T01:47:22.091Z,100782.44
2023-05-11T01:49:53.560Z,100777.34
2023-05-11T01:52:25.012Z,100783.94
2023-05-11T01:54:56.789Z,100781.72
2023-05-11T01:57:28.242Z,100784.03
2023-05-11T02:00:00.011Z,100778.94
2023-05-11T02:02:31.560Z,100775.31
2023-05-11T02:05:03.303Z,100778.22
2023-05-11T02:07:34.823Z,100782.75
2023-05-11T02:10:06.632Z,100782.19
2023-05-11T02:12:38.094Z,100783.47
2023-05-11T02:15:09.568Z,100775.09
2023-05-11T02:17:41.058Z,100787.88
2023-05-11T02:20:12.515Z,100786.69
2023-05-11T02:22:43.971Z,100800.94
2023-05-11T02:25:15.454Z,100793.03
2023-05-11T02:27:47.316Z,100794.78
2023-05-11T02:30:18.918Z,100791.97
2023-05-11T02:32:50.957Z,100805.56
2023-05-11T02:35:22.444Z,100808.47
2023-05-11T02:37:54.257Z,100800.66
2023-05-11T02:40:26.035Z,100798.22
2023-05-11T02:42:57.509Z,100802.75
2023-05-11T02:45:28.978Z,100804.03
2023-05-11T02:48:00.510Z,100801.34
2023-05-11T02:50:32.357Z,100799.94
2023-05-11T02:53:03.839Z,100803.91
2023-05-11T02:55:35.599Z,100809.25
2023-05-11T02:58:07.214Z,100803.75
2023-05-11T03:00:38.800Z,100803.16
2023-05-11T03:03:10.333Z,100800.94
2023-05-11T03:05:42.362Z,100813.00
2023-05-11T03:08:13.851Z,100814.50
2023-05-11T03:10:45.325Z,100809.63
2023-05-11T03:13:16.958Z,100816.00
2023-05-11T03:15:48.719Z,100819.09
2023-05-11T03:18:20.488Z,100809.91
2023-05-11T03:20:51.968Z,100819.19
2023-05-11T03:23:23.784Z,100811.63
2023-05-11T03:25:55.282Z,100810.34
2023-05-11T03:28:26.781Z,100811.16
2023-05-11T03:30:58.275Z,100812.44
2023-05-11T03:33:30.281Z,100814.28
2023-05-11T03:36:01.756Z,100820.00
2023-05-11T03:38:33.359Z,100816.28
2023-05-11T03:41:04.820Z,100817.09
2023-05-11T03:43:36.285Z,100815.91
2023-05-11T03:46:07.795Z,100813.47
2023-05-11T03:48:39.321Z,100816.28
2023-05-11T03:51:11.193Z,100811.75
2023-05-11T03:53:42.649Z,100816.66
2023-05-11T03:56:14.362Z,100809.84
2023-05-11T03:58:46.889Z,100810.44
2023-05-11T04:01:18.702Z,100805.59
2023-05-11T04:03:50.341Z,100813.19
2023-05-11T04:06:22.254Z,100813.91
2023-05-11T04:08:53.690Z,100813.09
2023-05-11T04:11:25.470Z,100818.91
2023-05-11T04:13:56.909Z,100814.75
2023-05-11T04:16:28.656Z,100811.63
2023-05-11T04:19:00.207Z,100819.91
2023-05-11T04:21:32.062Z,100817.97
2023-05-11T04:24:03.525Z,100826.00
2023-05-11T04:26:35.024Z,100818.22
2023-05-11T04:29:06.466Z,100825.53
2023-05-11T04:31:37.974Z,100818.00
2023-05-11T04:34:09.791Z,100830.22
2023-05-11T04:36:41.271Z,100826.66
2023-05-11T04:39:12.750Z,100823.75
2023-05-11T04:41:44.300Z,100826.53
2023-05-11T04:44:16.145Z,100825.03
2023-05-11T04:46:47.743Z,100839.94
2023-05-11T04:49:19.538Z,100832.84
2023-05-11T04:51:51.377Z,100841.44
2023-05-11T04:54:24.948Z,100837.97
2023-05-11T04:56:56.438Z,100854.47
2023-05-11T04:59:27.917Z,100843.44
2023-05-11T05:02:00.003Z,100846.19
2023-05-11T05:04:32.942Z,100844.63
2023-05-11T05:07:05.562Z,100851.19
2023-05-11T05:09:37.068Z,100854.78
2023-05-11T05:12:08.915Z,100852.41
2023-05-11T05:14:40.364Z,100847.47
2023-05-11T05:17:12.202Z,100860.34
2023-05-11T05:19:43.707Z,100855.50
2023-05-11T05:22:15.591Z,100852.84
2023-05-11T05:24:47.377Z,100852.44
2023-05-11T05:27:18.903Z,100853.34
2023-05-11T05:29:50.765Z,100859.97
2023-05-11T05:32:22.256Z,100855.81
2023-05-11T05:34:53.721Z,100852.75
2023-05-11T05:37:25.174Z,100855.31
2023-05-11T05:39:57.071Z,100854.09
2023-05-11T05:42:28.546Z,100859.00
2023-05-11T05:45:00.207Z,100875.75
2023-05-11T05:47:31.696Z,100873.25
2023-05-11T05:50:03.534Z,100874.50
2023-05-11T05:52:35.083Z,100875.28
2023-05-11T05:55:06.898Z,100877.63
2023-05-11T05:57:38.396Z,100885.25
2023-05-11T06:00:09.859Z,100882.59
2023-05-11T06:02:41.440Z,100888.28
2023-05-11T06:05:13.038Z,100892.13
2023-05-11T06:07:51.512Z,100894.09
2023-05-11T06:10:32.426Z,100883.56
2023-05-11T06:13:04.050Z,100894.44
2023-05-11T06:15:35.552Z,100886.94
2023-05-11T06:18:07.259Z,100880.59
2023-05-11T06:20:38.792Z,100883.34
2023-05-11T06:23:10.591Z,100887.72
2023-05-11T06:25:42.425Z,100890.84
2023-05-11T06:28:13.927Z,100888.72
2023-05-11T06:30:45.457Z,100895.09
2023-05-11T06:33:16.955Z,100887.56
2023-05-11T06:35:48.606Z,100878.63
2023-05-11T06:38:20.093Z,100894.56
2023-05-11T06:40:51.594Z,100883.44
2023-05-11T06:43:23.047Z,100888.84
2023-05-11T06:45:54.790Z,100887.28
2023-05-11T06:48:26.322Z,100885.91
2023-05-11T06:50:57.787Z,100890.75
2023-05-11T06:53:29.608Z,100894.53
2023-05-11T06:56:01.085Z,100887.50
2023-05-11T06:58:32.877Z,100887.78
2023-05-11T07:01:04.349Z,100884.19
2023-05-11T07:03:35.836Z,100884.06
2023-05-11T07:06:07.337Z,100887.91
2023-05-11T07:08:39.174Z,100879.84
2023-05-11T07:11:10.631Z,100879.53
2023-05-11T07:13:42.264Z,100886.72
2023-05-11T07:16:13.720Z,100883.47
2023-05-11T07:18:45.491Z,100889.09
2023-05-11T07:21:17.251Z,100884.81
2023-05-11T07:23:49.102Z,100884.00
2023-05-11T07:26:20.889Z,100895.78
2023-05-11T07:28:52.338Z,100891.94
2023-05-11T07:31:24.265Z,100886.34
2023-05-11T07:33:55.735Z,100884.09
2023-05-11T07:36:27.671Z,100888.94
2023-05-11T07:38:59.191Z,100893.25
2023-05-11T07:41:31.079Z,100880.50
2023-05-11T07:44:02.609Z,100887.50
2023-05-11T07:46:34.215Z,100882.13
2023-05-11T07:49:15.595Z,100883.22
2023-05-11T07:51:52.483Z,100884.97
2023-05-11T07:54:24.417Z,100882.94
2023-05-11T07:56:55.941Z,100883.75
2023-05-11T07:59:27.743Z,100885.13
2023-05-11T08:01:59.227Z,100879.69
2023-05-11T08:04:30.735Z,100880.38
2023-05-11T08:07:02.218Z,100878.75
2023-05-11T08:09:33.716Z,100880.41
2023-05-11T08:12:05.169Z,100882.13
2023-05-11T08:14:36.965Z,100884.84
2023-05-11T08:17:08.482Z,100876.97
2023-05-11T08:19:39.998Z,100874.34
2023-05-11T08:22:11.479Z,100876.25
2023-05-11T08:24:43.214Z,100869.63
2023-05-11T08:27:14.964Z,100872.97
2023-05-11T08:29:46.537Z,100871.84
2023-05-11T08:32:18.417Z,100877.94
2023-05-11T08:34:50.032Z,100879.09
2023-05-11T08:37:21.899Z,100880.59
2023-05-11T08:39:53.363Z,100883.91
2023-05-11T08:42:25.268Z,100873.03
2023-05-11T08:44:56.709Z,100873.97
2023-05-11T08:47:28.467Z,100870.06
2023-05-11T08:50:00.183Z,100869.47
2023-05-11T08:52:31.710Z,100873.03
2023-05-11T08:55:03.546Z,100867.19
2023-05-11T08:57:35.027Z,100870.78
2023-05-11T09:00:06.880Z,100866.53
2023-05-11T09:02:38.384Z,100868.34
2023-05-11T09:05:10.239Z,100869.03
2023-05-11T09:07:41.723Z,100870.56
2023-05-11T09:10:14.057Z,100863.91
2023-05-11T09:12:45.625Z,100862.50
2023-05-11T09:15:17.081Z,100869.13
2023-05-11T09:17:48.559Z,100863.38
2023-05-11T09:20:20.298Z,100869.63
2023-05-11T09:22:52.028Z,100861.75
2023-05-11T09:25:23.774Z,100864.41
2023-05-11T09:27:55.238Z,100865.44
2023-05-11T09:30:26.750Z,100869.00
2023-05-11T09:32:58.676Z,100863.00
2023-05-11T09:35:30.365Z,100853.16
2023-05-11T09:38:02.227Z,100856.28
2023-05-11T09:40:34.795Z,100866.16
2023-05-11T09:43:06.818Z,100867.56
2023-05-11T09:45:38.516Z,100863.84
2023-05-11T09:48:10.321Z,100859.97
2023-05-11T09:50:41.830Z,100853.56
2023-05-11T09:53:13.645Z,100858.38
2023-05-11T09:55:45.116Z,100864.22
2023-05-11T09:58:16.911Z,100850.19
2023-05-11T10:00:48.437Z,100848.56
2023-05-11T10:03:20.472Z,100849.03
2023-05-11T10:05:52.009Z,100852.47
2023-05-11T10:08:23.478Z,100847.97
2023-05-11T10:10:55.388Z,100845.72
2023-05-11T10:13:26.850Z,100840.25
2023-05-11T10:15:58.562Z,100841.88
2023-05-11T10:18:30.199Z,100838.03
2023-05-11T10:21:02.011Z,100841.00
2023-05-11T10:23:33.465Z,100832.50
2023-05-11T10:26:05.235Z,100830.72
2023-05-11T10:28:36.674Z,100840.50
2023-05-11T10:31:08.144Z,100825.47
2023-05-11T10:33:39.635Z,100832.56
2023-05-11T10:36:11.335Z,100842.34
2023-05-11T10:38:42.865Z,100841.44
2023-05-11T10:41:14.340Z,100837.75
2023-05-11T10:43:46.200Z,100833.22
2023-05-11T10:46:17.731Z,100837.00
2023-05-11T10:48:49.596Z,100829.88
2023-05-11T10:51:21.063Z,100827.63
2023-05-11T10:53:52.820Z,100825.16
2023-05-11T10:56:24.319Z,100823.66
2023-05-11T10:58:56.192Z,100817.13
2023-05-11T11:01:27.722Z,100820.81
2023-05-11T11:03:59.785Z,100813.81
2023-05-11T11:06:31.264Z,100812.75
2023-05-11T11:09:02.906Z,100817.28
2023-05-11T11:11:34.417Z,100825.59
2023-05-11T11:14:05.925Z,100831.97
2023-05-11T11:16:37.508Z,100822.22
2023-05-11T11:19:09.083Z,100825.34
2023-05-11T11:21:40.628Z,100811.47
2023-05-11T11:24:12.094Z,100824.03
2023-05-11T11:26:43.948Z,100820.31
2023-05-11T11:29:15.469Z,100821.00
2023-05-11T11:31:47.300Z,100829.19
2023-05-11T11:34:18.782Z,100831.69
2023-05-11T11:36:50.660Z,100823.78
2023-05-11T11:39:22.116Z,100822.31
2023-05-11T11:41:53.963Z,100817.13
2023-05-11T11:44:25.422Z,100821.41
2023-05-11T11:46:57.446Z,100828.53
2023-05-11T11:49:28.958Z,100830.13
2023-05-11T11:52:00.728Z,100816.63
2023-05-11T11:54:32.281Z,100823.81
2023-05-11T11:57:04.090Z,100819.84
2023-05-11T11:59:35.558Z,100823.19
2023-05-11T12:02:07.294Z,100816.09
2023-05-11T12:04:38.904Z,100819.81
2023-05-11T12:07:10.419Z,100823.63
2023-05-11T12:09:42.248Z,100830.50
2023-05-11T12:12:13.725Z,100831.66
2023-05-11T12:14:45.510Z,100831.44
2023-05-11T12:17:16.960Z,100833.28
2023-05-11T12:19:48.659Z,100839.25
2023-05-11T12:22:20.098Z,100837.56
2023-05-11T12:24:51.709Z,100852.56
2023-05-11T12:27:23.469Z,100833.84
2023-05-11T12:29:55.361Z,100839.75
2023-05-11T12:32:27.201Z,100833.97
2023-05-11T12:34:58.702Z,100837.81
2023-05-11T12:37:30.481Z,100837.03
2023-05-11T12:40:01.953Z,100837.50
2023-05-11T12:42:35.218Z,100840.25
2023-05-11T12:45:06.787Z,100836.88
2023-05-11T12:47:38.286Z,100833.31
2023-05-11T12:50:09.820Z,100835.13
2023-05-11T12:52:41.284Z,100834.28
2023-05-11T12:55:12.748Z,100828.34
2023-05-11T12:57:44.591Z,100830.25
2023-05-11T13:00:16.029Z,100827.41
2023-05-11T13:02:47.563Z,100829.31
2023-05-11T13:05:20.169Z,100829.94
2023-05-11T13:07:51.974Z,100828.28
2023-05-11T13:10:23.754Z,100824.03
2023-05-11T13:12:55.228Z,100819.09
2023-05-11T13:15:26.983Z,100828.66
2023-05-11T13:17:58.637Z,100824.91
2023-05-11T13:20:30.359Z,100822.22
2023-05-11T13:23:01.816Z,100833.03
2023-05-11T13:25:33.557Z,100828.09
2023-05-11T13:28:05.044Z,100828.72
2023-05-11T13:30:36.586Z,100829.44
2023-05-11T13:33:08.128Z,100836.88
2023-05-11T13:35:39.624Z,100825.25
2023-05-11T13:38:11.127Z,100831.44
2023-05-11T13:40:42.629Z,100822.31
2023-05-11T13:43:14.139Z,100833.56
2023-05-11T13:45:45.602Z,100833.34
2023-05-11T13:48:17.502Z,100824.16
2023-05-11T13:50:49.016Z,100834.91
2023-05-11T13:53:20.845Z,100827.25
2023-05-11T13:55:52.314Z,100829.41
2023-05-11T13:58:24.229Z,100827.69
2023-05-11T14:01:07.238Z,100833.22
2023-05-11T14:03:40.011Z,100825.13
2023-05-11T14:06:11.542Z,100830.91
2023-05-11T14:08:43.009Z,100828.16
2023-05-11T14:11:14.741Z,100827.31
2023-05-11T14:13:46.200Z,100824.03
2023-05-11T14:16:17.923Z,100826.16
2023-05-11T14:18:49.434Z,100823.59
2023-05-11T14:21:21.351Z,100827.84
2023-05-11T14:24:09.840Z,100831.22
2023-05-11T14:26:42.702Z,100822.00
2023-05-11T14:29:14.164Z,100835.72
2023-05-11T14:31:46.133Z,100811.94
2023-05-11T14:34:17.622Z,100818.06
2023-05-11T14:36:49.405Z,100826.16
2023-05-11T14:39:21.174Z,100825.19
2023-05-11T14:41:52.633Z,100809.69
2023-05-11T14:44:24.717Z,100818.59
2023-05-11T14:46:56.228Z,100816.03
2023-05-11T14:49:27.876Z,100811.19
2023-05-11T14:51:59.377Z,100808.16
2023-05-11T14:54:31.057Z,100803.13
2023-05-11T14:57:02.494Z,100813.84
2023-05-11T14:59:33.953Z,100805.91
2023-05-11T15:02:05.561Z,100810.69
2023-05-11T15:04:37.112Z,100812.41
2023-05-11T15:07:08.570Z,100819.28
2023-05-11T15:09:40.042Z,100811.63
2023-05-11T15:12:11.532Z,100819.06
2023-05-11T15:14:42.968Z,100822.88
2023-05-11T15:17:14.854Z,100821.09
2023-05-11T15:19:46.325Z,100823.09
2023-05-11T15:22:18.036Z,100827.53
2023-05-11T15:24:49.479Z,100832.88
2023-05-11T15:27:21.272Z,100835.66
2023-05-11T15:29:52.729Z,100835.53
2023-05-11T15:32:24.552Z,100831.59
2023-05-11T15:34:59.836Z,100834.16
2023-05-11T15:37:31.788Z,100839.41
2023-05-11T15:40:03.260Z,100838.84
2023-05-11T15:42:34.727Z,100836.69
2023-05-11T15:45:06.570Z,100844.66
2023-05-11T15:47:38.082Z,100844.22
2023-05-11T15:50:10.868Z,100850.28
2023-05-11T15:52:42.357Z,100847.22
2023-05-11T15:55:13.852Z,100855.38
2023-05-11T15:57:45.316Z,100852.50
2023-05-11T16:00:17.020Z,100856.63
2023-05-11T16:02:48.650Z,100851.69
2023-05-11T16:05:20.386Z,100853.09
2023-05-11T16:07:51.855Z,100857.44
2023-05-11T16:10:23.715Z,100733.69
2023-05-11T16:12:57.731Z,100859.47
2023-05-11T16:15:30.509Z,100857.31
2023-05-11T16:18:04.615Z,100860.94
2023-05-11T16:20:36.708Z,100863.78
2023-05-11T16:23:08.510Z,100862.28
2023-05-11T16:25:39.971Z,100865.59
2023-05-11T16:28:11.626Z,100868.72
2023-05-11T16:30:43.082Z,100862.56
2023-05-11T16:33:14.634Z,100866.78
2023-05-11T16:35:46.251Z,100677.53
2023-05-11T16:38:18.025Z,100866.59
2023-05-11T16:40:49.500Z,100863.38
2023-05-11T16:43:21.523Z,100874.94
2023-05-11T16:45:53.389Z,100868.78
2023-05-11T16:48:24.859Z,100867.97
2023-05-11T16:50:56.548Z,100861.53
2023-05-11T16:53:28.004Z,100874.44
2023-05-11T16:55:59.874Z,100874.88
2023-05-11T16:58:31.345Z,100873.44
2023-05-11T17:01:03.359Z,100881.81
2023-05-11T17:03:34.843Z,100881.91
2023-05-11T17:06:06.630Z,100884.28
2023-05-11T17:08:38.071Z,100881.03
2023-05-11T17:11:09.865Z,100887.38
2023-05-11T17:13:41.917Z,100887.94
2023-05-11T17:16:13.753Z,100890.16
2023-05-11T17:18:45.558Z,100888.91
2023-05-11T17:21:17.073Z,100889.94
2023-05-11T17:23:48.893Z,100889.34
2023-05-11T17:26:21.197Z,100894.34
2023-05-11T17:28:56.672Z,100899.69
2023-05-11T17:31:28.258Z,100889.38
2023-05-11T17:34:00.312Z,100893.31
2023-05-11T17:36:31.830Z,100893.44
2023-05-11T17:39:03.468Z,100903.84
2023-05-11T17:41:34.918Z,100903.31
2023-05-11T17:44:06.561Z,100905.00
2023-05-11T17:46:38.037Z,100908.81
2023-05-11T17:49:09.492Z,100912.97
2023-05-11T17:51:40.952Z,100914.44
2023-05-11T17:54:12.400Z,100918.88
2023-05-11T17:56:44.190Z,100915.50
2023-05-11T17:59:15.650Z,100919.66
2023-05-11T18:01:47.595Z,100920.63
2023-05-11T18:04:19.134Z,100925.03
2023-05-11T18:06:50.963Z,100933.44
2023-05-11T18:09:22.417Z,100938.16
2023-05-11T18:11:54.232Z,100934.72
2023-05-11T18:14:26.121Z,100935.34
2023-05-11T18:16:57.790Z,100939.22
2023-05-11T18:19:29.710Z,100944.03
2023-05-11T18:22:01.202Z,100940.88
2023-05-11T18:24:32.681Z,100946.81
2023-05-11T18:27:04.140Z,100948.22
2023-05-11T18:29:35.599Z,100950.13
2023-05-11T18:32:07.071Z,100947.50
2023-05-11T18:34:38.660Z,100952.09
2023-05-11T18:37:10.149Z,100949.97
2023-05-11T18:39:41.844Z,100960.03
2023-05-11T18:42:13.324Z,100956.28
2023-05-11T18:44:45.226Z,100963.03
2023-05-11T18:47:16.758Z,100963.88
2023-05-11T18:49:49.209Z,100969.56
2023-05-11T18:52:21.054Z,100961.97
2023-05-11T18:54:52.521Z,100973.91
2023-05-11T18:57:24.374Z,100972.84
2023-05-11T18:59:55.874Z,100976.94
2023-05-11T19:02:27.458Z,100975.59
2023-05-11T19:04:58.990Z,100985.56
2023-05-11T19:07:30.713Z,100983.69
2023-05-11T19:10:02.210Z,100985.06
2023-05-11T19:12:33.692Z,100989.66
2023-05-11T19:15:05.550Z,100997.25
2023-05-11T19:17:37.112Z,101001.56
2023-05-11T19:20:09.307Z,101001.31
2023-05-11T19:22:40.791Z,101008.34
2023-05-11T19:25:12.780Z,101008.09
2023-05-11T19:27:44.259Z,101016.72
2023-05-11T19:30:16.102Z,101017.53
2023-05-11T19:32:47.599Z,101020.25
2023-05-11T19:35:19.316Z,101019.97
2023-05-11T19:37:50.772Z,101031.34
2023-05-11T19:42:56.898Z,101024.28
2023-05-11T19:45:28.733Z,101027.25
2023-05-11T19:48:00.307Z,101030.78
2023-05-11T19:50:31.863Z,101035.63
2023-05-11T19:53:03.340Z,101031.31
2023-05-11T19:55:34.877Z,101035.63
2023-05-11T19:58:06.602Z,101039.16
2023-05-11T20:00:38.068Z,101038.59
2023-05-11T20:03:10.100Z,101041.84
2023-05-11T20:05:41.662Z,101050.22
2023-05-11T20:08:13.257Z,101045.34
2023-05-11T20:10:44.712Z,101048.81
2023-05-11T20:13:16.401Z,101055.03
2023-05-11T20:15:47.869Z,101044.50
2023-05-11T20:18:19.794Z,101051.78
2023-05-11T20:20:51.281Z,101053.94
2023-05-11T20:23:23.204Z,101053.94
2023-05-11T20:25:55.004Z,101049.06
2023-05-11T20:28:26.467Z,101047.19
2023-05-11T20:30:58.250Z,101064.47
2023-05-11T20:36:04.338Z,101054.19
2023-05-11T20:38:35.792Z,101050.13
2023-05-11T20:41:07.266Z,101059.28
2023-05-11T20:43:38.705Z,101055.44
2023-05-11T20:46:10.460Z,101056.53
2023-05-11T20:48:43.746Z,101057.88
2023-05-11T20:51:18.656Z,101053.81
2023-05-11T20:53:50.441Z,101055.41
2023-05-11T20:56:22.238Z,101050.00
2023-05-11T20:58:54.062Z,101064.56
2023-05-11T21:01:25.570Z,101067.78
2023-05-11T21:03:57.427Z,101072.66
2023-05-11T21:06:28.872Z,101066.97
2023-05-11T21:09:00.958Z,101071.56
2023-05-11T21:11:32.425Z,101068.84
2023-05-11T21:14:04.264Z,101068.56
2023-05-11T21:16:35.790Z,101065.59
2023-05-11T21:19:07.511Z,101071.19
2023-05-11T21:21:39.086Z,101076.03
2023-05-11T21:24:10.901Z,101073.84
2023-05-11T21:26:42.722Z,101072.25
2023-05-11T21:29:14.187Z,101072.50
2023-05-11T21:31:45.643Z,101073.28
2023-05-11T21:34:17.089Z,101071.66
2023-05-11T21:36:48.603Z,101077.84
2023-05-11T21:39:20.062Z,101076.75
2023-05-11T21:41:51.873Z,101077.81
2023-05-11T21:44:23.342Z,101072.16
2023-05-11T21:46:55.368Z,101080.78
2023-05-11T21:49:26.911Z,101079.13
2023-05-11T21:51:58.712Z,101095.03
2023-05-11T21:54:30.173Z,101093.94
2023-05-11T21:57:01.945Z,101092.31
2023-05-11T21:59:33.547Z,101097.38
2023-05-11T22:02:05.265Z,101098.19
2023-05-11T22:04:36.823Z,101096.31
2023-05-11T22:07:08.282Z,101092.78
2023-05-11T22:09:39.798Z,101089.81
2023-05-11T22:12:11.271Z,101095.19
2023-05-11T22:14:42.927Z,101101.38
2023-05-11T22:17:14.399Z,101095.16
2023-05-11T22:19:46.073Z,101104.84
2023-05-11T22:22:17.509Z,101093.72
2023-05-11T22:24:49.253Z,101098.53
2023-05-11T22:27:20.684Z,101100.13
2023-05-11T22:29:52.471Z,101104.13
2023-05-11T22:32:24.375Z,101098.13
2023-05-11T22:34:56.031Z,101104.28
2023-05-11T22:37:27.865Z,101105.31
2023-05-11T22:39:59.327Z,101106.31
2023-05-11T22:42:31.329Z,101112.28
2023-05-11T22:45:02.803Z,101109.03
2023-05-11T22:47:34.348Z,101108.72
2023-05-11T22:50:05.813Z,101119.44
2023-05-11T22:52:37.286Z,101118.59
2023-05-11T22:55:08.734Z,101120.72
2023-05-11T22:57:40.181Z,101120.16
2023-05-11T23:00:11.641Z,101126.78
2023-05-11T23:02:43.640Z,101128.09
2023-05-11T23:05:15.151Z,101120.47
2023-05-11T23:07:46.970Z,101121.28
2023-05-11T23:10:18.961Z,101120.44
2023-05-11T23:12:50.718Z,101123.63
2023-05-11T23:15:22.405Z,101125.75
2023-05-11T23:17:53.905Z,101120.88
2023-05-11T23:20:25.796Z,101119.41
2023-05-11T23:22:57.263Z,101128.81
2023-05-11T23:25:29.035Z,101124.13
2023-05-11T23:28:00.517Z,101130.53
2023-05-11T23:30:32.483Z,101126.94
2023-05-11T23:33:04.029Z,101126.13
2023-05-11T23:35:35.578Z,101127.13
2023-05-11T23:38:07.514Z,101127.38
2023-05-11T23:40:39.005Z,101121.69
2023-05-11T23:43:10.808Z,101125.13
2023-05-11T23:45:42.287Z,101126.25
2023-05-11T23:48:14.003Z,101128.53
2023-05-11T23:50:45.535Z,101121.47
2023-05-11T23:53:17.320Z,101117.13
2023-05-11T23:55:48.778Z,101121.63
2023-05-11T23:58:20.578Z,101115.69
